sensor_id;sensor_type;location;lat;lon;timestamp;temperature;humidity
40848;DHT22;26570;50.962;5.340;2023-06-14T00:07:34;18.10;94.80
40848;DHT22;26570;50.962;5.340;2023-06-14T00:10:39;17.90;95.30
40848;DHT22;26570;50.962;5.340;2023-06-14T00:14:05;17.80;95.70
40848;DHT22;26570;50.962;5.340;2023-06-14T00:17:06;17.80;96.30
40848;DHT22;26570;50.962;5.340;2023-06-14T00:20:51;17.80;96.90
40848;DHT22;26570;50.962;5.340;2023-06-14T00:24:16;17.60;97.50
40848;DHT22;26570;50.962;5.340;2023-06-14T00:27:57;17.40;97.60
40848;DHT22;26570;50.962;5.340;2023-06-14T00:31:34;17.70;98.20
40848;DHT22;26570;50.962;5.340;2023-06-14T00:35:07;17.60;98.40
40848;DHT22;26570;50.962;5.340;2023-06-14T00:38:20;17.50;98.80
40848;DHT22;26570;50.962;5.340;2023-06-14T00:41:54;17.40;99.30
40848;DHT22;26570;50.962;5.340;2023-06-14T00:45:21;17.30;99.80
40848;DHT22;26570;50.962;5.340;2023-06-14T00:51:34;17.30;99.90
40848;DHT22;26570;50.962;5.340;2023-06-14T00:54:27;17.30;99.90
40848;DHT22;26570;50.962;5.340;2023-06-14T00:57:55;17.20;99.90
40848;DHT22;26570;50.962;5.340;2023-06-14T01:01:02;17.10;99.90
40848;DHT22;26570;50.962;5.340;2023-06-14T01:19:38;17.00;99.90
40848;DHT22;26570;50.962;5.340;2023-06-14T01:23:22;16.80;99.90
40848;DHT22;26570;50.962;5.340;2023-06-14T01:27:01;16.90;99.90
40848;DHT22;26570;50.962;5.340;2023-06-14T01:30:20;16.90;99.90
40848;DHT22;26570;50.962;5.340;2023-06-14T01:34:06;16.80;99.90
40848;DHT22;26570;50.962;5.340;2023-06-14T01:36:56;16.90;99.90
40848;DHT22;26570;50.962;5.340;2023-06-14T01:40:45;16.80;99.90
40848;DHT22;26570;50.962;5.340;2023-06-14T01:44:08;16.80;99.90
40848;DHT22;26570;50.962;5.340;2023-06-14T01:47:51;16.70;99.90
40848;DHT22;26570;50.962;5.340;2023-06-14T01:51:08;16.80;99.90
40848;DHT22;26570;50.962;5.340;2023-06-14T02:05:51;16.50;99.90
40848;DHT22;26570;50.962;5.340;2023-06-14T02:09:02;16.40;99.90
40848;DHT22;26570;50.962;5.340;2023-06-14T02:15:37;16.60;99.90
40848;DHT22;26570;50.962;5.340;2023-06-14T02:18:59;16.20;99.90
40848;DHT22;26570;50.962;5.340;2023-06-14T02:21:49;16.50;99.90
40848;DHT22;26570;50.962;5.340;2023-06-14T02:24:36;16.40;99.90
40848;DHT22;26570;50.962;5.340;2023-06-14T02:27:23;16.40;99.90
40848;DHT22;26570;50.962;5.340;2023-06-14T02:30:38;16.30;99.90
40848;DHT22;26570;50.962;5.340;2023-06-14T02:33:27;16.40;99.90
40848;DHT22;26570;50.962;5.340;2023-06-14T02:36:22;16.20;99.90
40848;DHT22;26570;50.962;5.340;2023-06-14T02:39:10;16.50;99.90
40848;DHT22;26570;50.962;5.340;2023-06-14T02:42:00;16.40;99.90
40848;DHT22;26570;50.962;5.340;2023-06-14T02:44:52;16.40;99.90
40848;DHT22;26570;50.962;5.340;2023-06-14T02:47:42;16.30;99.90
40848;DHT22;26570;50.962;5.340;2023-06-14T02:50:29;16.30;99.90
40848;DHT22;26570;50.962;5.340;2023-06-14T02:53:17;16.20;99.90
40848;DHT22;26570;50.962;5.340;2023-06-14T02:56:08;16.50;99.90
40848;DHT22;26570;50.962;5.340;2023-06-14T02:58:58;16.30;99.90
40848;DHT22;26570;50.962;5.340;2023-06-14T03:01:46;16.60;99.90
40848;DHT22;26570;50.962;5.340;2023-06-14T03:04:33;16.40;99.90
40848;DHT22;26570;50.962;5.340;2023-06-14T03:07:22;16.30;99.90
40848;DHT22;26570;50.962;5.340;2023-06-14T03:10:33;16.30;99.90
40848;DHT22;26570;50.962;5.340;2023-06-14T03:13:44;16.40;99.90
40848;DHT22;26570;50.962;5.340;2023-06-14T03:16:31;16.40;99.90
40848;DHT22;26570;50.962;5.340;2023-06-14T03:19:23;16.30;99.90
40848;DHT22;26570;50.962;5.340;2023-06-14T03:22:11;16.40;99.90
40848;DHT22;26570;50.962;5.340;2023-06-14T03:24:58;16.30;99.90
40848;DHT22;26570;50.962;5.340;2023-06-14T03:27:48;16.20;99.90
40848;DHT22;26570;50.962;5.340;2023-06-14T03:30:38;16.40;99.90
40848;DHT22;26570;50.962;5.340;2023-06-14T03:33:26;16.20;99.90
40848;DHT22;26570;50.962;5.340;2023-06-14T03:36:15;16.10;99.90
40848;DHT22;26570;50.962;5.340;2023-06-14T03:39:03;16.10;99.90
40848;DHT22;26570;50.962;5.340;2023-06-14T03:42:14;16.10;99.90
40848;DHT22;26570;50.962;5.340;2023-06-14T03:45:10;16.10;99.90
40848;DHT22;26570;50.962;5.340;2023-06-14T03:47:58;16.20;99.90
40848;DHT22;26570;50.962;5.340;2023-06-14T03:50:51;16.20;99.90
40848;DHT22;26570;50.962;5.340;2023-06-14T03:53:40;16.20;99.90
40848;DHT22;26570;50.962;5.340;2023-06-14T03:56:30;16.30;99.90
40848;DHT22;26570;50.962;5.340;2023-06-14T03:59:21;16.30;99.90
40848;DHT22;26570;50.962;5.340;2023-06-14T04:02:09;16.30;99.90
40848;DHT22;26570;50.962;5.340;2023-06-14T04:04:58;16.20;99.90
40848;DHT22;26570;50.962;5.340;2023-06-14T04:07:46;16.30;99.90
40848;DHT22;26570;50.962;5.340;2023-06-14T04:11:15;16.00;99.90
40848;DHT22;26570;50.962;5.340;2023-06-14T04:14:35;16.30;99.90
40848;DHT22;26570;50.962;5.340;2023-06-14T04:17:22;16.30;99.90
40848;DHT22;26570;50.962;5.340;2023-06-14T04:20:35;16.30;99.90
40848;DHT22;26570;50.962;5.340;2023-06-14T04:23:23;16.50;99.90
40848;DHT22;26570;50.962;5.340;2023-06-14T04:26:13;16.40;99.90
40848;DHT22;26570;50.962;5.340;2023-06-14T04:29:05;16.50;99.90
40848;DHT22;26570;50.962;5.340;2023-06-14T04:31:53;16.40;99.90
40848;DHT22;26570;50.962;5.340;2023-06-14T04:34:45;16.40;99.90
40848;DHT22;26570;50.962;5.340;2023-06-14T04:37:33;16.50;99.90
40848;DHT22;26570;50.962;5.340;2023-06-14T04:40:20;16.60;99.90
40848;DHT22;26570;50.962;5.340;2023-06-14T04:43:08;16.60;99.90
40848;DHT22;26570;50.962;5.340;2023-06-14T04:46:00;16.80;99.90
40848;DHT22;26570;50.962;5.340;2023-06-14T04:48:51;16.70;99.90
40848;DHT22;26570;50.962;5.340;2023-06-14T04:51:39;16.80;99.90
40848;DHT22;26570;50.962;5.340;2023-06-14T04:54:27;16.80;99.90
40848;DHT22;26570;50.962;5.340;2023-06-14T04:57:18;16.90;99.90
40848;DHT22;26570;50.962;5.340;2023-06-14T05:00:08;17.00;99.90
40848;DHT22;26570;50.962;5.340;2023-06-14T05:02:57;16.90;99.90
40848;DHT22;26570;50.962;5.340;2023-06-14T05:05:46;17.10;99.90
40848;DHT22;26570;50.962;5.340;2023-06-14T05:08:36;17.10;99.90
40848;DHT22;26570;50.962;5.340;2023-06-14T05:11:27;17.20;99.90
40848;DHT22;26570;50.962;5.340;2023-06-14T05:14:17;17.30;99.90
40848;DHT22;26570;50.962;5.340;2023-06-14T05:17:08;17.30;99.90
40848;DHT22;26570;50.962;5.340;2023-06-14T05:19:55;17.40;99.90
40848;DHT22;26570;50.962;5.340;2023-06-14T05:22:43;17.50;99.90
40848;DHT22;26570;50.962;5.340;2023-06-14T05:25:32;17.60;99.90
40848;DHT22;26570;50.962;5.340;2023-06-14T05:28:20;17.80;99.90
40848;DHT22;26570;50.962;5.340;2023-06-14T05:31:08;17.80;99.90
40848;DHT22;26570;50.962;5.340;2023-06-14T05:34:18;17.90;99.90
40848;DHT22;26570;50.962;5.340;2023-06-14T05:37:08;18.00;99.90
40848;DHT22;26570;50.962;5.340;2023-06-14T05:40:02;18.10;99.90
40848;DHT22;26570;50.962;5.340;2023-06-14T05:42:52;18.20;99.90
40848;DHT22;26570;50.962;5.340;2023-06-14T05:45:45;18.30;99.90
40848;DHT22;26570;50.962;5.340;2023-06-14T05:48:35;18.30;99.90
40848;DHT22;26570;50.962;5.340;2023-06-14T05:51:45;18.80;99.90
40848;DHT22;26570;50.962;5.340;2023-06-14T05:54:37;18.60;99.90
40848;DHT22;26570;50.962;5.340;2023-06-14T05:57:29;18.80;99.90
40848;DHT22;26570;50.962;5.340;2023-06-14T06:00:20;19.00;99.90
40848;DHT22;26570;50.962;5.340;2023-06-14T06:03:07;19.40;99.90
40848;DHT22;26570;50.962;5.340;2023-06-14T06:05:57;19.40;99.90
40848;DHT22;26570;50.962;5.340;2023-06-14T06:08:46;20.20;99.90
40848;DHT22;26570;50.962;5.340;2023-06-14T06:11:36;20.70;99.90
40848;DHT22;26570;50.962;5.340;2023-06-14T06:22:47;26.20;88.20
40848;DHT22;26570;50.962;5.340;2023-06-14T06:25:35;28.30;80.10
40848;DHT22;26570;50.962;5.340;2023-06-14T06:28:23;29.30;77.40
40848;DHT22;26570;50.962;5.340;2023-06-14T06:31:10;30.80;75.20
40848;DHT22;26570;50.962;5.340;2023-06-14T06:33:58;31.50;71.90
40848;DHT22;26570;50.962;5.340;2023-06-14T06:36:48;31.80;70.40
40848;DHT22;26570;50.962;5.340;2023-06-14T06:40:02;32.10;69.10
40848;DHT22;26570;50.962;5.340;2023-06-14T06:42:53;32.90;67.50
40848;DHT22;26570;50.962;5.340;2023-06-14T06:49:42;33.40;66.50
40848;DHT22;26570;50.962;5.340;2023-06-14T06:52:58;33.60;65.00
40848;DHT22;26570;50.962;5.340;2023-06-14T06:56:27;34.10;65.30
40848;DHT22;26570;50.962;5.340;2023-06-14T06:59:15;34.70;62.80
40848;DHT22;26570;50.962;5.340;2023-06-14T07:02:25;33.20;63.00
40848;DHT22;26570;50.962;5.340;2023-06-14T07:06:04;33.10;62.60
40848;DHT22;26570;50.962;5.340;2023-06-14T07:09:33;32.80;62.80
40848;DHT22;26570;50.962;5.340;2023-06-14T07:12:23;32.70;63.10
40848;DHT22;26570;50.962;5.340;2023-06-14T07:16:01;33.10;62.90
40848;DHT22;26570;50.962;5.340;2023-06-14T07:19:27;33.20;62.40
40848;DHT22;26570;50.962;5.340;2023-06-14T07:23:06;33.00;63.10
40848;DHT22;26570;50.962;5.340;2023-06-14T07:25:57;33.50;62.30
40848;DHT22;26570;50.962;5.340;2023-06-14T07:29:14;33.10;61.80
40848;DHT22;26570;50.962;5.340;2023-06-14T07:32:43;33.70;62.20
40848;DHT22;26570;50.962;5.340;2023-06-14T07:36:13;33.80;61.60
40848;DHT22;26570;50.962;5.340;2023-06-14T07:39:29;33.30;61.70
40848;DHT22;26570;50.962;5.340;2023-06-14T07:42:30;32.90;61.40
40848;DHT22;26570;50.962;5.340;2023-06-14T07:45:48;33.10;61.40
40848;DHT22;26570;50.962;5.340;2023-06-14T07:49:16;33.30;61.10
40848;DHT22;26570;50.962;5.340;2023-06-14T07:52:23;33.50;61.80
40848;DHT22;26570;50.962;5.340;2023-06-14T07:55:36;33.90;60.70
40848;DHT22;26570;50.962;5.340;2023-06-14T07:58:52;34.20;59.70
40848;DHT22;26570;50.962;5.340;2023-06-14T08:02:27;34.00;59.50
40848;DHT22;26570;50.962;5.340;2023-06-14T08:09:19;33.90;60.00
40848;DHT22;26570;50.962;5.340;2023-06-14T08:12:39;33.50;60.20
40848;DHT22;26570;50.962;5.340;2023-06-14T08:16:04;33.50;60.50
40848;DHT22;26570;50.962;5.340;2023-06-14T08:19:01;33.90;60.50
40848;DHT22;26570;50.962;5.340;2023-06-14T08:22:36;34.00;60.00
40848;DHT22;26570;50.962;5.340;2023-06-14T08:25:56;33.90;60.00
40848;DHT22;26570;50.962;5.340;2023-06-14T08:29:04;33.70;60.50
40848;DHT22;26570;50.962;5.340;2023-06-14T08:32:34;33.50;59.10
40848;DHT22;26570;50.962;5.340;2023-06-14T08:35:32;33.30;60.20
40848;DHT22;26570;50.962;5.340;2023-06-14T08:42:42;32.90;59.70
40848;DHT22;26570;50.962;5.340;2023-06-14T08:46:08;32.90;60.50
40848;DHT22;26570;50.962;5.340;2023-06-14T08:49:36;33.10;60.20
40848;DHT22;26570;50.962;5.340;2023-06-14T08:52:54;33.20;60.60
40848;DHT22;26570;50.962;5.340;2023-06-14T08:56:20;33.40;61.00
40848;DHT22;26570;50.962;5.340;2023-06-14T08:59:56;33.20;59.40
40848;DHT22;26570;50.962;5.340;2023-06-14T09:03:20;33.10;58.80
40848;DHT22;26570;50.962;5.340;2023-06-14T09:06:39;32.90;59.00
40848;DHT22;26570;50.962;5.340;2023-06-14T09:10:15;33.00;59.90
40848;DHT22;26570;50.962;5.340;2023-06-14T09:13:09;33.10;58.40
40848;DHT22;26570;50.962;5.340;2023-06-14T09:15:57;32.80;58.50
40848;DHT22;26570;50.962;5.340;2023-06-14T09:19:07;32.70;58.50
40848;DHT22;26570;50.962;5.340;2023-06-14T09:22:53;33.00;59.10
40848;DHT22;26570;50.962;5.340;2023-06-14T09:26:15;33.10;59.40
40848;DHT22;26570;50.962;5.340;2023-06-14T09:29:58;32.80;58.80
40848;DHT22;26570;50.962;5.340;2023-06-14T09:33:37;32.90;58.80
40848;DHT22;26570;50.962;5.340;2023-06-14T09:37:23;32.60;59.40
40848;DHT22;26570;50.962;5.340;2023-06-14T09:40:57;32.30;58.40
40848;DHT22;26570;50.962;5.340;2023-06-14T09:44:43;32.20;58.30
40848;DHT22;26570;50.962;5.340;2023-06-14T09:59:10;32.30;58.80
40848;DHT22;26570;50.962;5.340;2023-06-14T10:02:39;31.70;58.50
40848;DHT22;26570;50.962;5.340;2023-06-14T10:06:16;31.80;58.60
40848;DHT22;26570;50.962;5.340;2023-06-14T10:09:34;31.20;59.00
40848;DHT22;26570;50.962;5.340;2023-06-14T10:13:02;31.40;59.40
40848;DHT22;26570;50.962;5.340;2023-06-14T10:16:20;31.40;58.20
40848;DHT22;26570;50.962;5.340;2023-06-14T10:23:56;31.30;58.40
40848;DHT22;26570;50.962;5.340;2023-06-14T10:27:30;31.80;58.70
40848;DHT22;26570;50.962;5.340;2023-06-14T10:35:20;31.60;58.30
40848;DHT22;26570;50.962;5.340;2023-06-14T10:38:46;31.50;57.80
40848;DHT22;26570;50.962;5.340;2023-06-14T10:42:23;31.70;58.40
40848;DHT22;26570;50.962;5.340;2023-06-14T10:46:43;31.60;58.50
40848;DHT22;26570;50.962;5.340;2023-06-14T10:50:31;31.90;59.20
40848;DHT22;26570;50.962;5.340;2023-06-14T10:54:02;31.10;56.90
40848;DHT22;26570;50.962;5.340;2023-06-14T10:57:43;31.30;58.20
40848;DHT22;26570;50.962;5.340;2023-06-14T11:12:04;31.50;56.60
40848;DHT22;26570;50.962;5.340;2023-06-14T11:15:45;31.50;57.00
40848;DHT22;26570;50.962;5.340;2023-06-14T11:19:08;32.20;55.40
40848;DHT22;26570;50.962;5.340;2023-06-14T11:22:05;32.20;54.20
40848;DHT22;26570;50.962;5.340;2023-06-14T11:25:50;32.60;53.50
40848;DHT22;26570;50.962;5.340;2023-06-14T11:29:10;32.50;54.10
40848;DHT22;26570;50.962;5.340;2023-06-14T11:39:33;31.60;53.60
40848;DHT22;26570;50.962;5.340;2023-06-14T11:42:45;31.80;54.00
40848;DHT22;26570;50.962;5.340;2023-06-14T11:46:13;32.20;54.10
40848;DHT22;26570;50.962;5.340;2023-06-14T11:53:03;32.20;54.00
40848;DHT22;26570;50.962;5.340;2023-06-14T11:56:31;32.10;52.50
40848;DHT22;26570;50.962;5.340;2023-06-14T11:59:25;32.30;54.80
40848;DHT22;26570;50.962;5.340;2023-06-14T12:06:07;32.10;52.60
40848;DHT22;26570;50.962;5.340;2023-06-14T12:13:24;31.60;55.20
40848;DHT22;26570;50.962;5.340;2023-06-14T12:16:39;32.10;53.80
40848;DHT22;26570;50.962;5.340;2023-06-14T12:20:06;32.40;53.80
40848;DHT22;26570;50.962;5.340;2023-06-14T12:23:41;32.50;54.50
40848;DHT22;26570;50.962;5.340;2023-06-14T12:30:44;32.50;53.70
40848;DHT22;26570;50.962;5.340;2023-06-14T12:34:03;32.30;53.80
40848;DHT22;26570;50.962;5.340;2023-06-14T12:37:31;32.20;54.70
40848;DHT22;26570;50.962;5.340;2023-06-14T12:40:44;31.90;55.30
40848;DHT22;26570;50.962;5.340;2023-06-14T12:43:55;32.30;56.10
40848;DHT22;26570;50.962;5.340;2023-06-14T12:47:09;32.40;55.10
40848;DHT22;26570;50.962;5.340;2023-06-14T12:50:35;32.10;55.00
40848;DHT22;26570;50.962;5.340;2023-06-14T12:54:18;32.00;55.10
40848;DHT22;26570;50.962;5.340;2023-06-14T12:57:41;32.10;55.30
40848;DHT22;26570;50.962;5.340;2023-06-14T13:01:06;32.10;54.90
40848;DHT22;26570;50.962;5.340;2023-06-14T13:07:40;32.10;53.90
40848;DHT22;26570;50.962;5.340;2023-06-14T13:11:17;31.80;54.80
40848;DHT22;26570;50.962;5.340;2023-06-14T13:14:42;31.40;54.40
40848;DHT22;26570;50.962;5.340;2023-06-14T13:18:00;31.60;55.30
40848;DHT22;26570;50.962;5.340;2023-06-14T13:24:41;32.00;55.60
40848;DHT22;26570;50.962;5.340;2023-06-14T13:27:49;32.50;55.00
40848;DHT22;26570;50.962;5.340;2023-06-14T13:31:14;32.70;55.20
40848;DHT22;26570;50.962;5.340;2023-06-14T13:34:31;32.70;55.00
40848;DHT22;26570;50.962;5.340;2023-06-14T13:37:48;32.80;54.50
40848;DHT22;26570;50.962;5.340;2023-06-14T13:41:08;33.00;54.60
40848;DHT22;26570;50.962;5.340;2023-06-14T13:44:08;33.20;54.60
40848;DHT22;26570;50.962;5.340;2023-06-14T13:47:43;32.90;53.90
40848;DHT22;26570;50.962;5.340;2023-06-14T13:51:18;33.10;55.10
40848;DHT22;26570;50.962;5.340;2023-06-14T13:54:24;33.10;54.70
40848;DHT22;26570;50.962;5.340;2023-06-14T14:01:46;32.60;54.30
40848;DHT22;26570;50.962;5.340;2023-06-14T14:05:21;32.90;54.20
40848;DHT22;26570;50.962;5.340;2023-06-14T14:08:53;32.60;55.30
40848;DHT22;26570;50.962;5.340;2023-06-14T14:12:14;32.30;53.90
40848;DHT22;26570;50.962;5.340;2023-06-14T14:15:37;32.00;54.00
40848;DHT22;26570;50.962;5.340;2023-06-14T14:18:55;32.20;55.00
40848;DHT22;26570;50.962;5.340;2023-06-14T14:22:14;32.30;55.50
40848;DHT22;26570;50.962;5.340;2023-06-14T14:29:21;32.20;54.70
40848;DHT22;26570;50.962;5.340;2023-06-14T14:33:08;32.40;55.00
40848;DHT22;26570;50.962;5.340;2023-06-14T14:36:05;32.50;54.90
40848;DHT22;26570;50.962;5.340;2023-06-14T14:39:16;32.50;54.70
40848;DHT22;26570;50.962;5.340;2023-06-14T14:42:19;32.40;54.80
40848;DHT22;26570;50.962;5.340;2023-06-14T14:45:55;32.60;55.10
40848;DHT22;26570;50.962;5.340;2023-06-14T14:49:09;32.40;56.00
40848;DHT22;26570;50.962;5.340;2023-06-14T14:52:44;32.50;55.60
40848;DHT22;26570;50.962;5.340;2023-06-14T14:56:22;32.30;55.80
40848;DHT22;26570;50.962;5.340;2023-06-14T14:59:45;32.50;55.30
40848;DHT22;26570;50.962;5.340;2023-06-14T15:07:35;32.30;55.30
40848;DHT22;26570;50.962;5.340;2023-06-14T15:10:58;31.90;55.50
40848;DHT22;26570;50.962;5.340;2023-06-14T15:14:36;32.00;56.60
40848;DHT22;26570;50.962;5.340;2023-06-14T15:18:16;32.00;55.40
40848;DHT22;26570;50.962;5.340;2023-06-14T15:21:33;32.10;55.30
40848;DHT22;26570;50.962;5.340;2023-06-14T15:24:38;32.20;55.60
40848;DHT22;26570;50.962;5.340;2023-06-14T15:28:00;32.00;55.60
40848;DHT22;26570;50.962;5.340;2023-06-14T15:39:31;32.10;54.90
40848;DHT22;26570;50.962;5.340;2023-06-14T15:43:12;31.80;54.50
40848;DHT22;26570;50.962;5.340;2023-06-14T15:50:27;31.70;54.90
40848;DHT22;26570;50.962;5.340;2023-06-14T15:53:54;31.40;55.10
40848;DHT22;26570;50.962;5.340;2023-06-14T15:57:07;31.30;55.00
40848;DHT22;26570;50.962;5.340;2023-06-14T16:04:35;31.20;56.60
40848;DHT22;26570;50.962;5.340;2023-06-14T16:08:01;31.40;55.90
40848;DHT22;26570;50.962;5.340;2023-06-14T16:22:33;31.50;56.70
40848;DHT22;26570;50.962;5.340;2023-06-14T16:26:26;31.10;57.30
40848;DHT22;26570;50.962;5.340;2023-06-14T16:33:59;30.80;57.60
40848;DHT22;26570;50.962;5.340;2023-06-14T16:49:04;30.60;57.40
40848;DHT22;26570;50.962;5.340;2023-06-14T16:52:36;30.20;58.40
40848;DHT22;26570;50.962;5.340;2023-06-14T16:55:58;30.10;58.90
40848;DHT22;26570;50.962;5.340;2023-06-14T16:59:26;30.10;59.60
40848;DHT22;26570;50.962;5.340;2023-06-14T17:02:48;30.20;59.60
40848;DHT22;26570;50.962;5.340;2023-06-14T17:06:18;30.30;59.60
40848;DHT22;26570;50.962;5.340;2023-06-14T17:12:58;29.90;60.50
40848;DHT22;26570;50.962;5.340;2023-06-14T17:23:55;30.00;60.30
40848;DHT22;26570;50.962;5.340;2023-06-14T17:27:04;30.00;60.40
40848;DHT22;26570;50.962;5.340;2023-06-14T17:30:15;29.70;59.80
40848;DHT22;26570;50.962;5.340;2023-06-14T17:37:31;29.70;59.60
40848;DHT22;26570;50.962;5.340;2023-06-14T17:41:07;29.70;60.40
40848;DHT22;26570;50.962;5.340;2023-06-14T17:44:20;29.30;60.50
40848;DHT22;26570;50.962;5.340;2023-06-14T17:47:41;29.50;60.60
40848;DHT22;26570;50.962;5.340;2023-06-14T17:51:16;29.50;61.00
40848;DHT22;26570;50.962;5.340;2023-06-14T17:54:44;29.50;61.20
40848;DHT22;26570;50.962;5.340;2023-06-14T18:05:05;29.00;61.60
40848;DHT22;26570;50.962;5.340;2023-06-14T18:08:07;28.70;62.10
40848;DHT22;26570;50.962;5.340;2023-06-14T18:11:20;28.70;62.60
40848;DHT22;26570;50.962;5.340;2023-06-14T18:14:46;28.50;62.10
40848;DHT22;26570;50.962;5.340;2023-06-14T18:21:33;28.20;63.00
40848;DHT22;26570;50.962;5.340;2023-06-14T18:28:24;28.10;63.40
40848;DHT22;26570;50.962;5.340;2023-06-14T18:31:24;28.20;63.50
40848;DHT22;26570;50.962;5.340;2023-06-14T18:38:40;27.90;64.10
40848;DHT22;26570;50.962;5.340;2023-06-14T18:42:36;28.00;64.10
40848;DHT22;26570;50.962;5.340;2023-06-14T18:45:48;28.00;64.10
40848;DHT22;26570;50.962;5.340;2023-06-14T18:48:49;27.70;64.20
40848;DHT22;26570;50.962;5.340;2023-06-14T18:52:08;27.30;64.40
40848;DHT22;26570;50.962;5.340;2023-06-14T18:59:05;26.80;65.90
40848;DHT22;26570;50.962;5.340;2023-06-14T19:05:51;26.60;66.10
40848;DHT22;26570;50.962;5.340;2023-06-14T19:12:07;26.40;66.80
40848;DHT22;26570;50.962;5.340;2023-06-14T19:15:57;26.10;66.30
40848;DHT22;26570;50.962;5.340;2023-06-14T19:23:15;25.70;67.90
40848;DHT22;26570;50.962;5.340;2023-06-14T19:26:29;25.50;68.10
40848;DHT22;26570;50.962;5.340;2023-06-14T19:30:07;25.30;68.40
40848;DHT22;26570;50.962;5.340;2023-06-14T19:41:16;24.60;70.70
40848;DHT22;26570;50.962;5.340;2023-06-14T19:48:29;24.20;71.90
40848;DHT22;26570;50.962;5.340;2023-06-14T19:52:15;24.20;71.90
40848;DHT22;26570;50.962;5.340;2023-06-14T20:03:00;23.50;75.00
40848;DHT22;26570;50.962;5.340;2023-06-14T20:17:17;22.90;76.60
40848;DHT22;26570;50.962;5.340;2023-06-14T20:24:29;22.50;78.00
40848;DHT22;26570;50.962;5.340;2023-06-14T20:27:48;22.40;78.70
40848;DHT22;26570;50.962;5.340;2023-06-14T20:42:50;21.70;81.70
40848;DHT22;26570;50.962;5.340;2023-06-14T20:46:21;21.60;81.80
40848;DHT22;26570;50.962;5.340;2023-06-14T20:50:12;21.40;82.90
40848;DHT22;26570;50.962;5.340;2023-06-14T20:54:06;21.30;83.60
40848;DHT22;26570;50.962;5.340;2023-06-14T21:05:52;20.80;85.80
40848;DHT22;26570;50.962;5.340;2023-06-14T21:16:57;20.40;86.60
40848;DHT22;26570;50.962;5.340;2023-06-14T21:35:56;19.90;90.20
40848;DHT22;26570;50.962;5.340;2023-06-14T21:39:25;19.80;90.60
40848;DHT22;26570;50.962;5.340;2023-06-14T21:43:02;19.70;90.90
40848;DHT22;26570;50.962;5.340;2023-06-14T21:47:00;19.60;91.50
40848;DHT22;26570;50.962;5.340;2023-06-14T21:58:09;19.30;92.10
40848;DHT22;26570;50.962;5.340;2023-06-14T22:01:47;19.20;92.40
40848;DHT22;26570;50.962;5.340;2023-06-14T22:09:40;19.00;93.40
40848;DHT22;26570;50.962;5.340;2023-06-14T22:25:33;18.50;95.20
40848;DHT22;26570;50.962;5.340;2023-06-14T22:33:07;18.30;97.30
40848;DHT22;26570;50.962;5.340;2023-06-14T22:52:48;17.80;99.90
